Time;durP1;ratioP1;P1;durP2;ratioP2;P2;SDS_P1;SDS_P2;PMS_P1;PMS_P2;Temp;Humidity;BMP_temperature;BMP_pressure;BME280_temperature;BME280_humidity;BME280_pressure;Samples;Min_cycle;Max_cycle;Signal;HPM_P1;HPM_P2
2022/12/30 06:12:03;;;;;;;51.40;13.60;;;8.50;92.10;;;;;;4970701;23;20227;-96
2022/12/30 06:21:09;;;;;;;14.03;4.27;;;8.50;92.00;;;;;;4953323;29;20282;-96
2022/12/30 06:24:13;;;;;;;14.57;4.93;;;8.40;92.40;;;;;;4933823;29;20193;-96
2022/12/30 06:29:59;;;;;;;16.07;5.10;;;8.40;92.50;;;;;;4893172;29;20217;-96
2022/12/30 06:32:43;;;;;;;10.13;4.87;;;8.40;92.30;;;;;;4891062;29;20208;-95
2022/12/30 06:35:29;;;;;;;;;;;;;;;;;;;;;
2022/12/30 06:38:13;;;;;;;13.13;4.50;;;8.50;92.60;;;;;;4895728;29;20274;-96
2022/12/30 06:47:19;;;;;;;20.10;7.33;;;8.50;92.90;;;;;;4999686;23;20241;-96
2022/12/30 06:50:51;;;;;;;9.27;4.67;;;8.50;93.10;;;;;;4945470;29;20283;-96
2022/12/30 07:01:45;;;;;;;18.63;7.40;;;8.60;93.40;;;;;;4970579;28;20250;-96
2022/12/30 07:04:55;;;;;;;10.50;5.87;;;8.70;93.60;;;;;;4954376;29;20206;-96
2022/12/30 07:10:46;;;;;;;14.33;6.77;;;8.70;93.50;;;;;;4958268;23;20243;-96
2022/12/30 07:32:52;;;;;;;13.83;6.70;;;9.00;93.60;;;;;;4916354;29;20263;-96
2022/12/30 07:36:30;;;;;;;;;;;;;;;;;;;;;
2022/12/30 07:39:39;;;;;;;16.73;6.80;;;9.10;93.60;;;;;;4840163;29;20220;-96
2022/12/30 07:42:44;;;;;;;15.23;6.73;;;9.10;93.60;;;;;;4835737;29;20239;-96
2022/12/30 07:45:20;;;;;;;14.93;5.50;;;9.10;93.60;;;;;;4821774;29;20256;-96
2022/12/30 07:48:30;;;;;;;12.93;5.40;;;9.20;93.60;;;;;;4827135;29;20203;-96
2022/12/30 07:51:50;;;;;;;11.97;4.83;;;9.30;93.80;;;;;;4803946;29;20712;-96
2022/12/30 07:58:04;;;;;;;15.33;5.37;;;9.30;93.90;;;;;;4817306;29;20334;-96
2022/12/30 08:00:35;;;;;;;11.03;5.07;;;9.40;94.00;;;;;;4869817;29;20325;-96
2022/12/30 08:03:07;;;;;;;13.20;5.07;;;9.40;94.00;;;;;;4892623;29;20643;-96
2022/12/30 08:06:10;;;;;;;12.40;3.83;;;9.40;94.20;;;;;;4901455;29;20663;-96
2022/12/30 08:08:56;;;;;;;12.60;4.93;;;9.40;94.20;;;;;;4887507;29;20209;-96
2022/12/30 08:18:45;;;;;;;8.73;3.53;;;9.60;94.20;;;;;;4888697;29;20213;-96
2022/12/30 08:28:38;;;;;;;10.80;3.53;;;9.70;94.20;;;;;;4868578;29;20212;-96
2022/12/30 08:31:36;;;;;;;11.80;3.70;;;9.80;94.20;;;;;;4875993;29;20225;-96
2022/12/30 08:34:26;;;;;;;10.17;3.17;;;9.90;94.00;;;;;;4902339;29;20661;-96
2022/12/30 08:36:55;;;;;;;10.50;3.70;;;9.90;94.00;;;;;;4941085;29;20240;-95
2022/12/30 08:46:01;;;;;;;14.00;4.63;;;10.00;93.40;;;;;;4881982;29;20230;-96
2022/12/30 08:48:54;;;;;;;7.67;2.63;;;10.00;93.30;;;;;;4877055;29;20619;-96
2022/12/30 08:51:39;;;;;;;15.43;3.83;;;10.10;93.30;;;;;;4943005;28;20234;-96
2022/12/30 08:54:08;;;;;;;11.40;3.10;;;10.10;93.20;;;;;;4948176;28;20255;-94
2022/12/30 08:57:03;;;;;;;15.07;4.47;;;10.10;93.20;;;;;;4942843;29;20200;-96
2022/12/30 08:59:33;;;;;;;15.57;4.10;;;10.10;93.20;;;;;;4932805;29;20314;-96
2022/12/30 09:02:26;;;;;;;14.90;4.03;;;10.20;93.10;;;;;;4924282;29;20236;-96
2022/12/30 09:05:45;;;;;;;10.43;3.93;;;10.30;93.10;;;;;;4944879;29;20208;-96
2022/12/30 09:08:22;;;;;;;12.40;4.20;;;10.30;93.10;;;;;;4942708;29;20282;-96
2022/12/30 09:11:30;;;;;;;18.03;5.37;;;10.30;93.00;;;;;;4913018;29;20679;-96
2022/12/30 09:14:25;;;;;;;15.40;4.23;;;10.30;93.00;;;;;;4939435;29;20282;-96
2022/12/30 09:17:01;;;;;;;6.90;2.37;;;10.40;92.90;;;;;;4945210;29;20196;-96
2022/12/30 09:22:34;;;;;;;31.33;9.23;;;10.50;92.80;;;;;;4962305;23;20287;-93
2022/12/30 09:25:15;;;;;;;8.80;2.80;;;10.40;92.60;;;;;;4939199;29;20220;-96
2022/12/30 09:27:47;;;;;;;10.37;2.93;;;10.50;92.60;;;;;;4940503;29;20208;-96
2022/12/30 09:33:04;;;;;;;10.27;3.07;;;10.50;92.60;;;;;;4934327;29;20223;-96
2022/12/30 09:39:13;;;;;;;12.80;3.07;;;10.50;92.60;;;;;;4939940;29;20188;-96
2022/12/30 09:45:12;;;;;;;10.13;3.63;;;10.60;92.50;;;;;;4938068;29;20579;-95
2022/12/30 09:47:46;;;;;;;10.40;2.73;;;10.60;92.40;;;;;;4926312;29;20231;-95
2022/12/30 09:50:46;;;;;;;16.13;3.83;;;10.70;92.30;;;;;;4944523;29;20192;-96
2022/12/30 09:53:23;;;;;;;11.63;3.20;;;10.70;92.40;;;;;;4946164;29;20736;-95
2022/12/30 09:58:57;;;;;;;11.17;2.83;;;10.70;92.40;;;;;;4954040;29;20188;-96
2022/12/30 10:01:34;;;;;;;12.10;3.73;;;10.70;92.30;;;;;;4956837;29;20200;-96
2022/12/30 10:04:21;;;;;;;9.90;2.60;;;10.80;92.40;;;;;;4956262;29;20232;-96
2022/12/30 10:07:15;;;;;;;9.00;2.77;;;10.80;92.20;;;;;;4957351;29;20188;-96
2022/12/30 10:10:09;;;;;;;13.87;4.17;;;10.80;92.30;;;;;;4940396;29;20236;-96
2022/12/30 10:13:02;;;;;;;5.33;1.90;;;10.90;92.40;;;;;;4934589;29;20653;-96
2022/12/30 10:15:53;;;;;;;8.03;2.07;;;10.90;92.30;;;;;;4942850;29;20222;-95
2022/12/30 10:19:01;;;;;;;6.53;2.00;;;10.90;92.30;;;;;;4945066;29;20216;-96
2022/12/30 10:22:00;;;;;;;6.47;2.17;;;10.90;92.40;;;;;;4853733;29;20238;-96
2022/12/30 10:25:03;;;;;;;7.77;2.30;;;11.00;92.60;;;;;;4861350;29;20617;-96
2022/12/30 10:27:49;;;;;;;7.90;2.73;;;11.10;92.80;;;;;;4925118;29;20220;-96
2022/12/30 10:30:28;;;;;;;7.23;1.90;;;11.00;92.80;;;;;;4925721;29;20209;-94
2022/12/30 10:33:19;;;;;;;8.87;3.10;;;11.10;92.80;;;;;;4927406;29;20272;-96
2022/12/30 10:38:55;;;;;;;10.23;2.97;;;11.10;92.90;;;;;;4929226;29;20213;-93
2022/12/30 10:42:20;;;;;;;11.10;2.83;;;11.10;92.90;;;;;;4927493;29;20245;-95
2022/12/30 10:48:04;;;;;;;9.47;2.90;;;11.10;93.10;;;;;;4921745;29;20239;-96
2022/12/30 10:50:37;;;;;;;7.80;2.63;;;11.20;93.20;;;;;;4922725;29;20656;-94
2022/12/30 10:53:12;;;;;;;8.20;2.07;;;11.10;93.30;;;;;;4923291;29;20209;-96
2022/12/30 10:55:48;;;;;;;7.33;1.97;;;11.10;93.30;;;;;;4922257;29;20204;-96
2022/12/30 10:58:46;;;;;;;11.87;3.20;;;11.20;93.60;;;;;;4923535;29;20213;-96
2022/12/30 11:08:06;;;;;;;;;;;;;;;;;;;;;
2022/12/30 11:14:44;;;;;;;9.77;2.23;;;11.10;94.00;;;;;;4906545;29;20217;-96
2022/12/30 11:17:25;;;;;;;11.87;2.33;;;11.20;94.10;;;;;;4921765;29;20227;-96
2022/12/30 11:20:06;;;;;;;5.90;2.07;;;11.20;94.10;;;;;;4921694;29;20221;-96
2022/12/30 11:22:51;;;;;;;8.30;2.60;;;11.10;94.10;;;;;;4919849;29;20232;-96
2022/12/30 11:25:28;;;;;;;8.40;1.77;;;11.20;94.30;;;;;;4923116;29;20217;-96
2022/12/30 11:31:12;;;;;;;9.23;2.77;;;11.20;94.50;;;;;;4922594;29;20242;-96
2022/12/30 11:33:52;;;;;;;8.03;2.27;;;11.20;94.60;;;;;;4921382;29;20213;-96
2022/12/30 11:36:34;;;;;;;5.60;1.90;;;11.20;94.80;;;;;;4910077;29;20219;-96
2022/12/30 11:39:26;;;;;;;10.33;2.50;;;11.20;94.80;;;;;;4907259;29;20220;-96
2022/12/30 11:44:50;;;;;;;5.67;2.10;;;11.20;94.80;;;;;;4905578;29;20233;-96
2022/12/30 11:47:44;;;;;;;6.93;2.50;;;11.20;94.90;;;;;;4920858;29;20217;-96
2022/12/30 11:50:32;;;;;;;8.47;2.13;;;11.30;95.10;;;;;;4924178;29;20221;-96
2022/12/30 11:53:07;;;;;;;4.70;1.67;;;11.30;95.20;;;;;;4925819;29;20264;-96
2022/12/30 11:55:38;;;;;;;6.63;2.33;;;11.30;95.20;;;;;;4924712;29;20223;-96
2022/12/30 11:58:23;;;;;;;;;;;;;;;;;;;;;
2022/12/30 12:01:01;;;;;;;5.80;1.43;;;11.30;95.30;;;;;;4909134;29;20209;-96
2022/12/30 12:06:17;;;;;;;5.37;2.00;;;11.40;95.60;;;;;;4906589;29;20227;-95
2022/12/30 12:09:09;;;;;;;3.17;1.43;;;11.40;95.70;;;;;;4922248;29;20204;-96
2022/12/30 12:11:50;;;;;;;6.43;1.97;;;11.50;95.80;;;;;;4922760;29;20219;-95
2022/12/30 12:14:34;;;;;;;7.43;2.23;;;11.50;96.00;;;;;;4904079;29;20209;-96
2022/12/30 12:26:44;;;;;;;7.03;2.50;;;11.60;96.00;;;;;;4924939;29;20220;-95
2022/12/30 12:32:48;;;;;;;5.37;1.70;;;11.60;95.90;;;;;;4965109;23;20630;-96
2022/12/30 12:35:39;;;;;;;5.10;1.73;;;11.70;96.00;;;;;;4942227;29;20204;-95
2022/12/30 12:38:54;;;;;;;3.47;1.40;;;11.70;96.20;;;;;;4933799;29;20209;-95
2022/12/30 12:41:52;;;;;;;4.20;1.40;;;11.70;96.10;;;;;;4915194;29;20272;-96
2022/12/30 12:45:22;;;;;;;5.43;2.03;;;11.70;96.20;;;;;;4919054;29;20243;-96
2022/12/30 12:51:28;;;;;;;5.77;1.67;;;11.80;96.10;;;;;;4921100;29;20293;-95
2022/12/30 12:54:28;;;;;;;4.73;1.80;;;11.90;96.10;;;;;;4932485;29;20268;-95
2022/12/30 12:57:17;;;;;;;5.63;1.77;;;11.90;96.20;;;;;;4937712;29;20666;-95
2022/12/30 13:00:15;;;;;;;5.63;2.07;;;11.90;96.10;;;;;;4937274;29;20675;-95
2022/12/30 13:03:20;;;;;;;6.37;2.23;;;11.90;96.10;;;;;;4939759;29;20244;-96
2022/12/30 13:06:06;;;;;;;5.93;2.10;;;12.00;96.30;;;;;;4938727;29;20303;-96
2022/12/30 13:09:26;;;;;;;4.37;1.70;;;12.00;96.40;;;;;;4938241;29;20207;-95
2022/12/30 13:12:05;;;;;;;4.37;1.83;;;12.00;96.50;;;;;;4937658;29;20219;-95
2022/12/30 13:14:49;;;;;;;3.90;1.57;;;12.10;96.70;;;;;;4940638;29;20215;-95
2022/12/30 13:17:27;;;;;;;4.33;1.53;;;12.10;96.70;;;;;;4939199;29;20240;-95
2022/12/30 13:20:09;;;;;;;6.27;2.03;;;12.10;96.80;;;;;;4940306;29;20200;-96
2022/12/30 13:22:50;;;;;;;4.63;1.60;;;12.20;96.80;;;;;;4938447;29;20264;-95
2022/12/30 13:25:24;;;;;;;5.87;1.70;;;12.20;96.80;;;;;;4922968;29;20219;-96
2022/12/30 13:28:07;;;;;;;6.63;2.07;;;12.30;96.90;;;;;;4927121;29;20220;-93
2022/12/30 13:30:49;;;;;;;3.70;1.53;;;12.30;96.90;;;;;;4961006;29;20188;-95
2022/12/30 13:33:38;;;;;;;3.50;1.40;;;12.40;97.10;;;;;;4955171;29;20214;-95
2022/12/30 13:36:19;;;;;;;3.80;1.43;;;12.40;97.00;;;;;;4944754;29;20216;-96
2022/12/30 13:39:29;;;;;;;4.97;1.70;;;12.40;97.00;;;;;;4942681;29;20280;-96
2022/12/30 13:45:28;;;;;;;4.67;1.73;;;12.50;97.10;;;;;;4928892;29;20266;-95
2022/12/30 13:48:11;;;;;;;4.20;1.53;;;12.60;97.30;;;;;;4929550;29;20209;-95
2022/12/30 13:50:55;;;;;;;3.90;1.57;;;12.60;97.30;;;;;;4929982;29;20202;-96
2022/12/30 13:53:48;;;;;;;4.30;1.73;;;12.70;97.40;;;;;;4928952;29;20224;-96
2022/12/30 13:56:42;;;;;;;2.50;1.20;;;12.70;97.80;;;;;;4950325;29;20569;-96
2022/12/30 13:59:31;;;;;;;4.40;1.53;;;12.70;97.60;;;;;;4950050;29;20213;-95
2022/12/30 14:18:59;;;;;;;2.67;1.50;;;13.10;97.90;;;;;;4892862;29;20205;-94
2022/12/30 14:27:53;;;;;;;4.70;1.87;;;13.20;98.40;;;;;;5158453;27;20190;-95
2022/12/30 14:30:43;;;;;;;4.60;1.77;;;13.30;98.10;;;;;;5161688;27;20196;-95
2022/12/30 14:36:20;;;;;;;6.27;2.13;;;13.40;98.20;;;;;;5158325;27;20619;-94
2022/12/30 14:39:02;;;;;;;3.73;1.57;;;13.40;98.30;;;;;;5141593;27;20281;-96
2022/12/30 14:41:47;;;;;;;4.30;1.80;;;13.50;98.50;;;;;;5136451;28;20248;-96
2022/12/30 14:44:30;;;;;;;4.17;1.73;;;13.50;98.30;;;;;;5135187;28;20252;-96
2022/12/30 14:47:07;;;;;;;3.77;1.53;;;13.50;98.30;;;;;;5136067;28;20299;-96
2022/12/30 14:49:43;;;;;;;4.73;1.93;;;13.60;98.30;;;;;;5137968;28;20233;-96
2022/12/30 14:52:23;;;;;;;7.20;2.47;;;13.60;98.50;;;;;;5144087;28;20224;-95
2022/12/30 14:55:15;;;;;;;7.20;2.83;;;13.70;98.70;;;;;;5150188;27;20199;-96
2022/12/30 14:57:59;;;;;;;6.63;2.57;;;13.70;98.80;;;;;;5159293;27;20226;-96
2022/12/30 15:00:45;;;;;;;3.80;1.50;;;13.80;98.70;;;;;;5137870;28;20203;-96
2022/12/30 15:03:25;;;;;;;4.83;2.07;;;13.80;98.70;;;;;;5138287;27;20238;-96
2022/12/30 15:05:59;;;;;;;3.37;1.40;;;13.90;98.80;;;;;;5137701;28;20676;-96
2022/12/30 15:08:41;;;;;;;4.13;1.60;;;13.90;98.70;;;;;;5141826;27;20209;-96
2022/12/30 15:11:17;;;;;;;7.33;2.53;;;13.90;98.80;;;;;;5143043;27;20226;-96
2022/12/30 15:16:48;;;;;;;3.20;1.47;;;14.00;99.00;;;;;;5159613;27;20192;-96
2022/12/30 15:19:37;;;;;;;4.33;1.93;;;14.10;98.90;;;;;;5158215;27;20763;-95
2022/12/30 15:22:21;;;;;;;6.30;2.50;;;14.10;99.00;;;;;;5157799;27;20231;-95
2022/12/30 15:25:11;;;;;;;2.57;1.37;;;14.20;99.00;;;;;;5155401;27;20322;-96
2022/12/30 15:27:54;;;;;;;4.23;1.57;;;14.20;99.10;;;;;;5136699;27;20333;-95
2022/12/30 15:30:35;;;;;;;5.30;2.07;;;14.30;99.30;;;;;;5139085;27;20208;-95
2022/12/30 15:36:08;;;;;;;6.50;2.83;;;14.40;99.40;;;;;;5125056;28;20244;-96
2022/12/30 15:41:34;;;;;;;5.33;2.43;;;14.40;99.40;;;;;;5141226;27;20222;-95
2022/12/30 15:44:17;;;;;;;5.93;2.37;;;14.50;99.30;;;;;;5142631;27;20247;-95
2022/12/30 15:46:58;;;;;;;5.77;2.50;;;14.50;99.40;;;;;;5144064;27;20211;-96
2022/12/30 15:49:31;;;;;;;4.27;2.00;;;14.60;99.50;;;;;;5151703;27;20196;-95
2022/12/30 15:52:13;;;;;;;6.37;2.67;;;14.60;99.30;;;;;;5147942;27;20196;-95
2022/12/30 15:58:15;;;;;;;5.93;2.20;;;14.70;99.30;;;;;;5123517;27;20201;-96
2022/12/30 16:04:48;;;;;;;8.50;2.17;;;14.80;99.40;;;;;;5127561;28;20290;-96
2022/12/30 16:07:36;;;;;;;7.20;2.03;;;14.80;99.30;;;;;;5131464;28;20201;-96
2022/12/30 16:21:15;;;;;;;6.37;1.73;;;15.10;99.40;;;;;;5139720;27;20198;-95
2022/12/30 16:29:51;;;;;;;5.50;1.70;;;15.30;99.10;;;;;;5147422;27;20198;-96
2022/12/30 16:49:16;;;;;;;7.03;2.37;;;15.40;99.00;;;;;;5546465;22;15784566;-96
2022/12/30 16:51:58;;;;;;;7.93;2.70;;;15.50;98.80;;;;;;6205455;23;20219;-96
2022/12/30 16:57:14;;;;;;;10.50;3.07;;;15.50;98.70;;;;;;6208383;23;20192;-95
2022/12/30 16:59:59;;;;;;;6.93;2.23;;;15.60;98.70;;;;;;6218322;23;20173;-96
2022/12/30 17:02:54;;;;;;;5.97;1.97;;;15.60;98.60;;;;;;6209579;23;20178;-96
2022/12/30 17:09:04;;;;;;;8.50;2.53;;;15.60;98.20;;;;;;6199959;23;20180;-96
2022/12/30 17:11:44;;;;;;;8.47;2.57;;;15.60;98.00;;;;;;6201806;23;20255;-96
2022/12/30 17:14:37;;;;;;;7.73;2.10;;;15.60;97.80;;;;;;6197942;23;20259;-96
2022/12/30 17:17:22;;;;;;;10.03;2.13;;;15.60;97.40;;;;;;6199707;23;20545;-96
2022/12/30 17:20:11;;;;;;;5.67;1.47;;;15.60;97.40;;;;;;6199164;23;20179;-96
2022/12/30 17:23:19;;;;;;;;;;;;;;;;;;;;;
2022/12/30 17:28:47;;;;;;;11.00;2.13;;;15.60;97.30;;;;;;6145100;23;20188;-96
2022/12/30 17:31:48;;;;;;;5.27;1.90;;;15.60;97.20;;;;;;6168334;23;20175;-96
2022/12/30 17:34:27;;;;;;;8.63;2.40;;;15.60;97.20;;;;;;6172910;23;20174;-96
2022/12/30 17:37:18;;;;;;;10.50;2.63;;;15.60;97.00;;;;;;6185241;23;20185;-96
2022/12/30 17:40:02;;;;;;;9.60;2.60;;;15.60;97.20;;;;;;6183023;23;20256;-96
2022/12/30 17:43:02;;;;;;;7.70;2.13;;;15.60;97.20;;;;;;6166068;23;20202;-96
2022/12/30 17:45:35;;;;;;;7.03;2.73;;;15.60;97.20;;;;;;6168804;23;20612;-96
2022/12/30 17:48:04;;;;;;;6.97;2.10;;;15.60;97.30;;;;;;6166995;23;20177;-96
2022/12/30 17:50:44;;;;;;;5.23;1.80;;;15.70;97.40;;;;;;6161455;23;20178;-96
2022/12/30 17:53:22;;;;;;;3.07;1.57;;;15.60;97.40;;;;;;6161363;23;20182;-96
2022/12/30 17:56:04;;;;;;;6.67;1.80;;;15.60;97.50;;;;;;6161223;23;20259;-96
2022/12/30 17:58:48;;;;;;;8.07;2.60;;;15.70;97.90;;;;;;6160322;23;20193;-96
2022/12/30 18:01:53;;;;;;;5.67;2.33;;;15.60;97.60;;;;;;6160406;23;20506;-96
2022/12/30 18:04:38;;;;;;;6.40;2.10;;;15.60;97.70;;;;;;6160402;23;20631;-96
2022/12/30 18:07:17;;;;;;;7.13;2.30;;;15.70;97.70;;;;;;6159357;23;20169;-96
2022/12/30 18:13:04;;;;;;;7.73;2.47;;;15.60;97.80;;;;;;6151696;23;20177;-96
2022/12/30 18:15:51;;;;;;;6.53;1.63;;;15.60;97.80;;;;;;6164299;23;20194;-96
2022/12/30 18:21:39;;;;;;;5.07;2.10;;;15.60;97.80;;;;;;6158792;23;20204;-94
2022/12/30 18:24:21;;;;;;;10.43;2.03;;;15.70;97.80;;;;;;6158334;23;20202;-95
2022/12/30 18:26:59;;;;;;;7.60;2.33;;;15.60;97.70;;;;;;6158214;23;20568;-93
2022/12/30 18:32:31;;;;;;;12.73;3.17;;;15.70;97.70;;;;;;6119328;23;20177;-96
2022/12/30 18:35:05;;;;;;;10.67;2.40;;;15.70;97.70;;;;;;6177265;23;20174;-96
2022/12/30 18:37:47;;;;;;;8.10;2.50;;;15.70;97.70;;;;;;6169649;23;20202;-96
2022/12/30 18:44:02;;;;;;;9.33;2.17;;;15.70;97.80;;;;;;6040507;23;20217;-94
2022/12/30 18:46:59;;;;;;;6.33;1.53;;;15.70;97.60;;;;;;6161242;23;20757;-96
2022/12/30 18:49:42;;;;;;;7.23;1.93;;;15.80;97.70;;;;;;6162214;23;20189;-96
2022/12/30 18:52:15;;;;;;;6.20;1.67;;;15.80;97.60;;;;;;6162260;23;20181;-96
2022/12/30 18:55:42;;;;;;;;;;;;;;;;;;;;;
2022/12/30 18:58:13;;;;;;;8.40;1.93;;;15.80;97.60;;;;;;6122442;23;20605;-96
2022/12/30 19:00:52;;;;;;;6.20;2.50;;;15.90;97.50;;;;;;6164265;23;20189;-94
2022/12/30 19:03:54;;;;;;;;;;;;;;;;;;;;;
2022/12/30 19:07:02;;;;;;;8.93;2.80;;;15.90;97.50;;;;;;6166862;23;20502;-95
2022/12/30 19:09:52;;;;;;;10.87;2.90;;;15.90;97.40;;;;;;6139075;23;20248;-96
2022/12/30 19:12:27;;;;;;;10.63;2.30;;;15.90;97.30;;;;;;6161160;23;20178;-96
2022/12/30 19:15:41;;;;;;;;;;;;;;;;;;;;;
2022/12/30 19:21:42;;;;;;;6.20;1.67;;;15.90;97.00;;;;;;6158928;23;20268;-96
2022/12/30 19:33:34;;;;;;;5.73;1.30;;;15.90;97.00;;;;;;6172630;23;20173;-96
2022/12/30 19:39:53;;;;;;;9.47;2.17;;;16.00;97.00;;;;;;6158564;23;20177;-96
2022/12/30 19:42:53;;;;;;;9.43;2.20;;;16.00;96.80;;;;;;6166664;23;20183;-96
2022/12/30 19:46:10;;;;;;;13.33;2.80;;;16.00;96.90;;;;;;6162218;23;20184;-94
2022/12/30 19:48:44;;;;;;;9.27;2.60;;;16.00;96.70;;;;;;6166052;23;20185;-96
2022/12/30 19:51:37;;;;;;;8.63;2.50;;;16.00;96.60;;;;;;6165898;23;20190;-96
2022/12/30 19:54:10;;;;;;;9.10;2.37;;;16.00;96.50;;;;;;6163892;23;20170;-95
2022/12/30 20:00:01;;;;;;;7.43;1.40;;;16.00;96.40;;;;;;6158386;23;20563;-93
2022/12/30 20:05:37;;;;;;;9.30;2.83;;;16.00;96.50;;;;;;6163233;23;20177;-96
2022/12/30 20:08:37;;;;;;;7.00;2.17;;;16.00;96.30;;;;;;6163716;23;20670;-96
2022/12/30 20:11:40;;;;;;;9.27;2.20;;;16.10;96.50;;;;;;6166109;23;20180;-96
2022/12/30 20:14:27;;;;;;;10.83;2.73;;;16.00;96.40;;;;;;6162876;23;20186;-95
2022/12/30 20:17:46;;;;;;;8.77;2.10;;;16.00;96.20;;;;;;6163287;23;20176;-96
2022/12/30 20:24:10;;;;;;;8.53;2.40;;;16.00;96.20;;;;;;6136071;23;20215;-96
2022/12/30 20:34:22;;;;;;;7.43;2.83;;;16.00;96.40;;;;;;6163653;23;20247;-96
2022/12/30 20:40:33;;;;;;;5.90;2.63;;;16.00;96.50;;;;;;6009204;23;20186;-96
2022/12/30 20:49:46;;;;;;;10.23;2.60;;;16.00;96.50;;;;;;6162868;23;20180;-95
2022/12/30 20:52:28;;;;;;;11.37;3.20;;;16.10;96.60;;;;;;6165793;23;20230;-96
2022/12/30 20:54:56;;;;;;;9.20;3.10;;;16.10;96.70;;;;;;6162221;23;20169;-96
2022/12/30 20:57:41;;;;;;;10.23;2.87;;;16.00;96.80;;;;;;6160965;23;20201;-96
2022/12/30 21:00:39;;;;;;;7.13;2.10;;;16.10;97.00;;;;;;6142340;23;20179;-95
2022/12/30 21:03:24;;;;;;;6.10;2.23;;;16.10;97.10;;;;;;6163710;23;20203;-94
2022/12/30 21:06:14;;;;;;;8.37;2.37;;;16.10;97.10;;;;;;6168254;23;20614;-95
2022/12/30 21:08:47;;;;;;;10.03;3.40;;;16.10;97.30;;;;;;6167372;23;20198;-95
2022/12/30 21:11:18;;;;;;;8.97;2.73;;;16.10;97.20;;;;;;6159300;23;20206;-96
2022/12/30 21:13:52;;;;;;;10.40;3.80;;;16.10;97.40;;;;;;6159882;23;20174;-94
2022/12/30 21:16:22;;;;;;;5.87;2.20;;;16.00;97.40;;;;;;6160989;23;20188;-95
2022/12/30 21:18:57;;;;;;;15.90;5.07;;;16.10;97.50;;;;;;6164103;23;20280;-96
2022/12/30 21:21:33;;;;;;;6.40;2.13;;;16.10;97.60;;;;;;6167523;23;20172;-94
2022/12/30 21:24:09;;;;;;;6.50;2.40;;;16.00;97.60;;;;;;6177902;23;20221;-95
2022/12/30 21:29:58;;;;;;;6.30;2.30;;;16.10;97.90;;;;;;6166025;23;20183;-95
2022/12/30 21:32:33;;;;;;;6.07;2.27;;;16.00;97.80;;;;;;6165739;23;20175;-94
2022/12/30 21:35:08;;;;;;;6.63;2.07;;;16.00;97.80;;;;;;6164488;23;20177;-94
2022/12/30 22:02:43;;;;;;;5.73;2.10;;;16.00;97.80;;;;;;6166000;23;20194;-95
2022/12/30 22:05:24;;;;;;;7.03;2.70;;;16.10;97.90;;;;;;6119576;23;20553;-94
2022/12/30 22:08:04;;;;;;;6.10;2.27;;;16.10;97.90;;;;;;6163631;23;20538;-96
2022/12/30 22:10:49;;;;;;;6.67;2.50;;;16.20;97.90;;;;;;6163026;23;20814;-95
2022/12/30 22:16:27;;;;;;;4.33;2.07;;;16.10;98.00;;;;;;6163260;23;20177;-95
2022/12/30 22:19:05;;;;;;;6.17;2.50;;;16.20;97.90;;;;;;6169242;23;20226;-95
2022/12/30 22:22:12;;;;;;;4.50;1.97;;;16.10;97.90;;;;;;6181830;23;20162;-95
2022/12/30 22:24:48;;;;;;;4.97;2.03;;;16.20;98.10;;;;;;6041293;23;20180;-95
2022/12/30 22:28:08;;;;;;;3.07;2.00;;;16.10;97.90;;;;;;6041662;23;20183;-96
2022/12/30 22:31:09;;;;;;;5.33;2.37;;;16.20;98.10;;;;;;6028508;23;20187;-94
2022/12/30 22:45:01;;;;;;;;;;;;;;;;;;;;;
2022/12/30 22:47:38;;;;;;;6.73;3.20;;;16.20;98.20;;;;;;5821969;24;20197;-95
2022/12/30 22:56:34;;;;;;;5.33;2.77;;;16.30;98.10;;;;;;6047607;23;20273;-96
2022/12/30 23:02:29;;;;;;;8.70;3.23;;;16.30;98.00;;;;;;6103808;23;20223;-96
2022/12/30 23:05:24;;;;;;;12.33;4.47;;;16.30;98.20;;;;;;6026677;23;20234;-96
2022/12/30 23:08:38;;;;;;;6.30;2.63;;;16.30;98.20;;;;;;6152235;23;21051;-96
2022/12/30 23:11:27;;;;;;;7.00;2.53;;;16.30;98.20;;;;;;6261880;22;20172;-96
2022/12/30 23:17:25;;;;;;;6.07;2.40;;;16.30;98.30;;;;;;6288590;22;20499;-96
2022/12/30 23:20:02;;;;;;;5.90;2.33;;;16.30;98.30;;;;;;6298027;22;20203;-96
2022/12/30 23:26:17;;;;;;;3.63;1.60;;;16.30;98.20;;;;;;6280811;22;20217;-96
2022/12/30 23:29:08;;;;;;;;;;;;;;;;;;;;;
2022/12/30 23:32:28;;;;;;;3.50;1.33;;;16.30;98.00;;;;;;6276926;22;20623;-96
2022/12/30 23:35:59;;;;;;;5.23;1.83;;;16.30;98.00;;;;;;6277499;22;20220;-96
2022/12/30 23:42:07;;;;;;;7.03;2.27;;;16.30;98.00;;;;;;6215002;22;20620;-96
2022/12/30 23:44:57;;;;;;;5.20;1.80;;;16.30;97.80;;;;;;6280028;22;20194;-96
2022/12/30 23:47:33;;;;;;;6.43;2.30;;;16.30;97.70;;;;;;6280406;22;20171;-96
2022/12/30 23:53:08;;;;;;;6.47;2.03;;;16.30;97.50;;;;;;6256807;22;20194;-96
2022/12/30 23:59:27;;;;;;;10.23;3.13;;;16.30;97.40;;;;;;6205955;22;20209;-96
